Terminal Aerodrome Forecast
Issued by NWS

Home | Current Version | Previous Version | Text Only | Print | Product List | Glossary On
Versions: 1 2 3 4 5 6 7 8 9 10 11 12 13 14 15
123
FTUS46 KSGX 230750 AAA
TAFPSP
TAF AMD
KPSP 230750Z 2308/2406 33011KT P6SM SKC
      TEMPO 2308/2310 07010KT
     FM231200 VRB06KT P6SM SKC
     FM240000 33010KT P6SM SKC=

USA.gov is the U.S. government's official web portal to all federal, state and local government web resources and services.